sensor_id;sensor_type;location;lat;lon;timestamp;temperature;humidity
15700;DHT22;7950;42.744;23.174;2023-08-08T00:01:46;16.50;99.90
15700;DHT22;7950;42.744;23.174;2023-08-08T00:04:14;16.50;99.90
15700;DHT22;7950;42.744;23.174;2023-08-08T00:06:43;16.50;99.90
15700;DHT22;7950;42.744;23.174;2023-08-08T00:09:13;16.40;99.90
15700;DHT22;7950;42.744;23.174;2023-08-08T00:11:42;16.40;99.90
15700;DHT22;7950;42.744;23.174;2023-08-08T00:14:10;16.30;99.90
15700;DHT22;7950;42.744;23.174;2023-08-08T00:16:39;16.30;99.90
15700;DHT22;7950;42.744;23.174;2023-08-08T00:19:07;16.30;99.90
15700;DHT22;7950;42.744;23.174;2023-08-08T00:21:36;16.20;99.90
15700;DHT22;7950;42.744;23.174;2023-08-08T00:24:05;16.20;99.90
15700;DHT22;7950;42.744;23.174;2023-08-08T00:26:35;16.30;99.90
15700;DHT22;7950;42.744;23.174;2023-08-08T00:29:03;16.30;99.90
15700;DHT22;7950;42.744;23.174;2023-08-08T00:31:33;16.30;99.90
15700;DHT22;7950;42.744;23.174;2023-08-08T00:34:01;16.30;99.90
15700;DHT22;7950;42.744;23.174;2023-08-08T00:36:30;16.20;99.90
15700;DHT22;7950;42.744;23.174;2023-08-08T00:38:58;16.20;99.90
15700;DHT22;7950;42.744;23.174;2023-08-08T00:41:27;16.20;99.90
15700;DHT22;7950;42.744;23.174;2023-08-08T00:43:57;16.10;99.90
15700;DHT22;7950;42.744;23.174;2023-08-08T00:46:25;16.00;99.90
15700;DHT22;7950;42.744;23.174;2023-08-08T00:48:54;16.00;99.90
15700;DHT22;7950;42.744;23.174;2023-08-08T00:51:23;16.00;99.90
15700;DHT22;7950;42.744;23.174;2023-08-08T00:53:53;16.00;99.90
15700;DHT22;7950;42.744;23.174;2023-08-08T00:56:22;15.90;99.90
15700;DHT22;7950;42.744;23.174;2023-08-08T00:58:51;15.70;99.90
15700;DHT22;7950;42.744;23.174;2023-08-08T01:01:21;15.60;99.90
15700;DHT22;7950;42.744;23.174;2023-08-08T01:03:50;15.50;99.90
15700;DHT22;7950;42.744;23.174;2023-08-08T01:06:24;15.50;99.90
15700;DHT22;7950;42.744;23.174;2023-08-08T01:09:04;15.40;99.90
15700;DHT22;7950;42.744;23.174;2023-08-08T01:11:36;15.30;99.90
15700;DHT22;7950;42.744;23.174;2023-08-08T01:14:06;15.20;99.90
15700;DHT22;7950;42.744;23.174;2023-08-08T01:16:38;15.20;99.90
15700;DHT22;7950;42.744;23.174;2023-08-08T01:19:09;15.20;99.90
15700;DHT22;7950;42.744;23.174;2023-08-08T01:21:43;15.20;99.90
15700;DHT22;7950;42.744;23.174;2023-08-08T01:24:18;15.20;99.90
15700;DHT22;7950;42.744;23.174;2023-08-08T01:26:48;15.20;99.90
15700;DHT22;7950;42.744;23.174;2023-08-08T01:29:17;15.20;99.90
15700;DHT22;7950;42.744;23.174;2023-08-08T01:31:46;15.20;99.90
15700;DHT22;7950;42.744;23.174;2023-08-08T01:34:14;15.20;99.90
15700;DHT22;7950;42.744;23.174;2023-08-08T01:36:48;15.20;99.90
15700;DHT22;7950;42.744;23.174;2023-08-08T01:39:25;15.10;99.90
15700;DHT22;7950;42.744;23.174;2023-08-08T01:41:56;15.10;99.90
15700;DHT22;7950;42.744;23.174;2023-08-08T01:44:28;15.10;99.90
15700;DHT22;7950;42.744;23.174;2023-08-08T01:46:59;15.10;99.90
15700;DHT22;7950;42.744;23.174;2023-08-08T01:49:30;15.00;99.90
15700;DHT22;7950;42.744;23.174;2023-08-08T01:51:58;15.10;99.90
15700;DHT22;7950;42.744;23.174;2023-08-08T01:54:29;15.10;99.90
15700;DHT22;7950;42.744;23.174;2023-08-08T01:56:58;15.10;99.90
15700;DHT22;7950;42.744;23.174;2023-08-08T01:59:26;15.10;99.90
15700;DHT22;7950;42.744;23.174;2023-08-08T02:01:55;15.10;99.90
15700;DHT22;7950;42.744;23.174;2023-08-08T02:04:24;15.20;99.90
15700;DHT22;7950;42.744;23.174;2023-08-08T02:06:52;15.20;99.90
15700;DHT22;7950;42.744;23.174;2023-08-08T02:09:21;15.20;99.90
15700;DHT22;7950;42.744;23.174;2023-08-08T02:11:51;15.20;99.90
15700;DHT22;7950;42.744;23.174;2023-08-08T02:14:20;15.30;99.90
15700;DHT22;7950;42.744;23.174;2023-08-08T02:16:48;15.30;99.90
15700;DHT22;7950;42.744;23.174;2023-08-08T02:19:17;15.30;99.90
15700;DHT22;7950;42.744;23.174;2023-08-08T02:21:45;15.30;99.90
15700;DHT22;7950;42.744;23.174;2023-08-08T02:24:14;15.20;99.90
15700;DHT22;7950;42.744;23.174;2023-08-08T02:26:42;15.20;99.90
15700;DHT22;7950;42.744;23.174;2023-08-08T02:29:12;15.20;99.90
15700;DHT22;7950;42.744;23.174;2023-08-08T02:31:41;15.10;99.90
15700;DHT22;7950;42.744;23.174;2023-08-08T02:34:09;15.10;99.90
15700;DHT22;7950;42.744;23.174;2023-08-08T02:36:38;15.20;99.90
15700;DHT22;7950;42.744;23.174;2023-08-08T02:39:07;15.20;99.90
15700;DHT22;7950;42.744;23.174;2023-08-08T02:41:35;15.20;99.90
15700;DHT22;7950;42.744;23.174;2023-08-08T02:44:04;15.20;99.90
15700;DHT22;7950;42.744;23.174;2023-08-08T02:46:34;15.10;99.90
15700;DHT22;7950;42.744;23.174;2023-08-08T02:49:04;15.20;99.90
15700;DHT22;7950;42.744;23.174;2023-08-08T02:51:33;15.20;99.90
15700;DHT22;7950;42.744;23.174;2023-08-08T02:54:01;15.30;99.90
15700;DHT22;7950;42.744;23.174;2023-08-08T02:56:30;15.30;99.90
15700;DHT22;7950;42.744;23.174;2023-08-08T02:58:59;15.20;99.90
15700;DHT22;7950;42.744;23.174;2023-08-08T03:01:27;15.20;99.90
15700;DHT22;7950;42.744;23.174;2023-08-08T03:03:57;15.20;99.90
15700;DHT22;7950;42.744;23.174;2023-08-08T03:06:26;15.20;99.90
15700;DHT22;7950;42.744;23.174;2023-08-08T03:08:55;15.20;99.90
15700;DHT22;7950;42.744;23.174;2023-08-08T03:11:23;15.20;99.90
15700;DHT22;7950;42.744;23.174;2023-08-08T03:13:52;15.20;99.90
15700;DHT22;7950;42.744;23.174;2023-08-08T03:16:20;15.20;99.90
15700;DHT22;7950;42.744;23.174;2023-08-08T03:18:49;15.20;99.90
15700;DHT22;7950;42.744;23.174;2023-08-08T03:21:19;15.20;99.90
15700;DHT22;7950;42.744;23.174;2023-08-08T03:23:48;15.30;99.90
15700;DHT22;7950;42.744;23.174;2023-08-08T03:26:16;15.30;99.90
15700;DHT22;7950;42.744;23.174;2023-08-08T03:28:45;15.40;99.90
15700;DHT22;7950;42.744;23.174;2023-08-08T03:31:17;15.40;99.90
15700;DHT22;7950;42.744;23.174;2023-08-08T03:33:45;15.30;99.90
15700;DHT22;7950;42.744;23.174;2023-08-08T03:36:14;15.30;99.90
15700;DHT22;7950;42.744;23.174;2023-08-08T03:38:45;15.30;99.90
15700;DHT22;7950;42.744;23.174;2023-08-08T03:41:14;15.30;99.90
15700;DHT22;7950;42.744;23.174;2023-08-08T03:43:42;15.40;99.90
15700;DHT22;7950;42.744;23.174;2023-08-08T03:46:11;15.40;99.90
15700;DHT22;7950;42.744;23.174;2023-08-08T03:48:39;15.40;99.90
15700;DHT22;7950;42.744;23.174;2023-08-08T03:51:08;15.50;99.90
15700;DHT22;7950;42.744;23.174;2023-08-08T03:53:37;15.50;99.90
15700;DHT22;7950;42.744;23.174;2023-08-08T03:56:06;15.50;99.90
15700;DHT22;7950;42.744;23.174;2023-08-08T03:58:35;15.50;99.90
15700;DHT22;7950;42.744;23.174;2023-08-08T04:01:04;15.50;99.90
15700;DHT22;7950;42.744;23.174;2023-08-08T04:03:32;15.50;99.90
15700;DHT22;7950;42.744;23.174;2023-08-08T04:06:01;15.50;99.90
15700;DHT22;7950;42.744;23.174;2023-08-08T04:08:29;15.50;99.90
15700;DHT22;7950;42.744;23.174;2023-08-08T04:10:58;15.50;99.90
15700;DHT22;7950;42.744;23.174;2023-08-08T04:13:28;15.50;99.90
15700;DHT22;7950;42.744;23.174;2023-08-08T04:15:57;15.60;99.90
15700;DHT22;7950;42.744;23.174;2023-08-08T04:18:25;15.50;99.90
15700;DHT22;7950;42.744;23.174;2023-08-08T04:20:54;15.50;99.90
15700;DHT22;7950;42.744;23.174;2023-08-08T04:23:23;15.60;99.90
15700;DHT22;7950;42.744;23.174;2023-08-08T04:25:53;15.60;99.90
15700;DHT22;7950;42.744;23.174;2023-08-08T04:28:21;15.60;99.90
15700;DHT22;7950;42.744;23.174;2023-08-08T04:30:52;15.60;99.90
15700;DHT22;7950;42.744;23.174;2023-08-08T04:33:20;15.60;99.90
15700;DHT22;7950;42.744;23.174;2023-08-08T04:35:49;15.70;99.90
15700;DHT22;7950;42.744;23.174;2023-08-08T04:38:17;15.70;99.90
15700;DHT22;7950;42.744;23.174;2023-08-08T04:40:46;15.70;99.90
15700;DHT22;7950;42.744;23.174;2023-08-08T04:43:15;15.70;99.90
15700;DHT22;7950;42.744;23.174;2023-08-08T04:45:43;15.70;99.90
15700;DHT22;7950;42.744;23.174;2023-08-08T04:48:13;15.70;99.90
15700;DHT22;7950;42.744;23.174;2023-08-08T04:50:41;15.80;99.90
15700;DHT22;7950;42.744;23.174;2023-08-08T04:53:10;15.90;99.90
15700;DHT22;7950;42.744;23.174;2023-08-08T04:55:38;15.90;99.90
15700;DHT22;7950;42.744;23.174;2023-08-08T04:58:07;16.00;99.90
15700;DHT22;7950;42.744;23.174;2023-08-08T05:00:36;16.10;99.90
15700;DHT22;7950;42.744;23.174;2023-08-08T05:03:04;16.20;99.90
15700;DHT22;7950;42.744;23.174;2023-08-08T05:05:34;16.30;99.90
15700;DHT22;7950;42.744;23.174;2023-08-08T05:08:03;16.20;99.90
15700;DHT22;7950;42.744;23.174;2023-08-08T05:10:32;16.30;99.90
15700;DHT22;7950;42.744;23.174;2023-08-08T05:13:01;16.50;99.90
15700;DHT22;7950;42.744;23.174;2023-08-08T05:15:29;16.70;99.90
15700;DHT22;7950;42.744;23.174;2023-08-08T05:17:58;16.90;99.90
15700;DHT22;7950;42.744;23.174;2023-08-08T05:20:26;16.90;99.90
15700;DHT22;7950;42.744;23.174;2023-08-08T05:22:56;17.00;99.90
15700;DHT22;7950;42.744;23.174;2023-08-08T05:25:25;16.90;99.90
15700;DHT22;7950;42.744;23.174;2023-08-08T05:27:53;16.90;99.90
15700;DHT22;7950;42.744;23.174;2023-08-08T05:30:23;16.90;99.90
15700;DHT22;7950;42.744;23.174;2023-08-08T05:32:52;16.70;99.90
15700;DHT22;7950;42.744;23.174;2023-08-08T05:35:21;16.60;99.90
15700;DHT22;7950;42.744;23.174;2023-08-08T05:37:49;16.60;99.90
15700;DHT22;7950;42.744;23.174;2023-08-08T05:40:19;16.60;99.90
15700;DHT22;7950;42.744;23.174;2023-08-08T05:42:47;16.50;99.90
15700;DHT22;7950;42.744;23.174;2023-08-08T05:45:16;16.60;99.90
15700;DHT22;7950;42.744;23.174;2023-08-08T05:47:45;16.50;99.90
15700;DHT22;7950;42.744;23.174;2023-08-08T05:50:13;16.50;99.90
15700;DHT22;7950;42.744;23.174;2023-08-08T05:52:42;16.40;99.90
15700;DHT22;7950;42.744;23.174;2023-08-08T05:55:10;16.40;99.90
15700;DHT22;7950;42.744;23.174;2023-08-08T05:57:40;16.40;99.90
15700;DHT22;7950;42.744;23.174;2023-08-08T06:00:10;16.40;99.90
15700;DHT22;7950;42.744;23.174;2023-08-08T06:02:39;16.40;99.90
15700;DHT22;7950;42.744;23.174;2023-08-08T06:05:08;16.40;99.90
15700;DHT22;7950;42.744;23.174;2023-08-08T06:07:38;16.50;99.90
15700;DHT22;7950;42.744;23.174;2023-08-08T06:10:07;16.60;99.90
15700;DHT22;7950;42.744;23.174;2023-08-08T06:12:36;16.90;99.90
15700;DHT22;7950;42.744;23.174;2023-08-08T06:15:07;16.90;99.90
15700;DHT22;7950;42.744;23.174;2023-08-08T06:17:36;17.10;99.90
15700;DHT22;7950;42.744;23.174;2023-08-08T06:20:06;17.40;99.90
15700;DHT22;7950;42.744;23.174;2023-08-08T06:22:37;17.60;99.90
15700;DHT22;7950;42.744;23.174;2023-08-08T06:25:06;17.70;99.90
15700;DHT22;7950;42.744;23.174;2023-08-08T06:27:35;17.80;99.90
15700;DHT22;7950;42.744;23.174;2023-08-08T06:30:06;17.90;99.90
15700;DHT22;7950;42.744;23.174;2023-08-08T06:32:36;17.90;99.90
15700;DHT22;7950;42.744;23.174;2023-08-08T06:35:06;17.80;99.90
15700;DHT22;7950;42.744;23.174;2023-08-08T06:37:37;17.70;99.90
15700;DHT22;7950;42.744;23.174;2023-08-08T06:40:07;17.70;99.90
15700;DHT22;7950;42.744;23.174;2023-08-08T06:42:36;17.80;99.90
15700;DHT22;7950;42.744;23.174;2023-08-08T06:45:07;17.90;99.90
15700;DHT22;7950;42.744;23.174;2023-08-08T06:47:36;18.00;99.90
15700;DHT22;7950;42.744;23.174;2023-08-08T06:50:06;18.10;99.90
15700;DHT22;7950;42.744;23.174;2023-08-08T06:52:36;18.20;99.90
15700;DHT22;7950;42.744;23.174;2023-08-08T06:55:05;18.20;99.90
15700;DHT22;7950;42.744;23.174;2023-08-08T06:57:34;18.20;99.90
15700;DHT22;7950;42.744;23.174;2023-08-08T07:00:04;18.20;99.90
15700;DHT22;7950;42.744;23.174;2023-08-08T07:02:35;18.10;99.90
15700;DHT22;7950;42.744;23.174;2023-08-08T07:05:04;18.10;99.90
15700;DHT22;7950;42.744;23.174;2023-08-08T07:07:33;18.20;99.90
15700;DHT22;7950;42.744;23.174;2023-08-08T07:10:03;18.30;99.90
15700;DHT22;7950;42.744;23.174;2023-08-08T07:12:33;18.50;99.90
15700;DHT22;7950;42.744;23.174;2023-08-08T07:15:02;18.70;99.90
15700;DHT22;7950;42.744;23.174;2023-08-08T07:17:32;18.80;99.90
15700;DHT22;7950;42.744;23.174;2023-08-08T07:20:02;18.70;99.90
15700;DHT22;7950;42.744;23.174;2023-08-08T07:22:32;18.80;99.90
15700;DHT22;7950;42.744;23.174;2023-08-08T07:25:01;18.90;99.90
15700;DHT22;7950;42.744;23.174;2023-08-08T07:27:31;19.10;99.90
15700;DHT22;7950;42.744;23.174;2023-08-08T07:30:00;19.10;99.90
15700;DHT22;7950;42.744;23.174;2023-08-08T07:32:29;19.00;99.90
15700;DHT22;7950;42.744;23.174;2023-08-08T07:34:59;18.90;99.90
15700;DHT22;7950;42.744;23.174;2023-08-08T07:37:33;19.00;99.90
15700;DHT22;7950;42.744;23.174;2023-08-08T07:40:03;19.10;99.90
15700;DHT22;7950;42.744;23.174;2023-08-08T07:42:41;19.20;99.90
15700;DHT22;7950;42.744;23.174;2023-08-08T07:45:09;19.20;99.90
15700;DHT22;7950;42.744;23.174;2023-08-08T07:47:38;19.30;99.90
15700;DHT22;7950;42.744;23.174;2023-08-08T07:50:07;19.40;99.90
15700;DHT22;7950;42.744;23.174;2023-08-08T07:52:38;19.40;99.90
15700;DHT22;7950;42.744;23.174;2023-08-08T07:55:07;19.50;99.90
15700;DHT22;7950;42.744;23.174;2023-08-08T07:57:36;19.70;99.90
15700;DHT22;7950;42.744;23.174;2023-08-08T08:00:06;19.90;99.90
15700;DHT22;7950;42.744;23.174;2023-08-08T08:02:36;20.00;99.90
15700;DHT22;7950;42.744;23.174;2023-08-08T08:05:05;19.90;99.90
15700;DHT22;7950;42.744;23.174;2023-08-08T08:07:36;20.10;99.90
15700;DHT22;7950;42.744;23.174;2023-08-08T08:10:09;20.20;99.90
15700;DHT22;7950;42.744;23.174;2023-08-08T08:12:41;20.40;99.90
15700;DHT22;7950;42.744;23.174;2023-08-08T08:15:10;20.50;99.90
15700;DHT22;7950;42.744;23.174;2023-08-08T08:17:39;20.60;98.40
15700;DHT22;7950;42.744;23.174;2023-08-08T08:20:09;20.40;95.70
15700;DHT22;7950;42.744;23.174;2023-08-08T08:22:40;20.30;97.10
15700;DHT22;7950;42.744;23.174;2023-08-08T08:25:09;20.10;97.80
15700;DHT22;7950;42.744;23.174;2023-08-08T08:27:38;20.20;99.80
15700;DHT22;7950;42.744;23.174;2023-08-08T08:30:07;20.20;99.90
15700;DHT22;7950;42.744;23.174;2023-08-08T08:32:40;20.40;98.80
15700;DHT22;7950;42.744;23.174;2023-08-08T08:35:10;20.40;98.70
15700;DHT22;7950;42.744;23.174;2023-08-08T08:37:41;20.20;99.50
15700;DHT22;7950;42.744;23.174;2023-08-08T08:40:10;20.10;99.00
15700;DHT22;7950;42.744;23.174;2023-08-08T08:42:39;20.10;98.90
15700;DHT22;7950;42.744;23.174;2023-08-08T08:45:09;20.00;99.20
15700;DHT22;7950;42.744;23.174;2023-08-08T08:47:40;20.20;99.80
15700;DHT22;7950;42.744;23.174;2023-08-08T08:50:10;20.40;98.80
15700;DHT22;7950;42.744;23.174;2023-08-08T08:52:40;20.70;98.50
15700;DHT22;7950;42.744;23.174;2023-08-08T08:55:10;20.70;93.20
15700;DHT22;7950;42.744;23.174;2023-08-08T08:57:39;20.80;98.50
15700;DHT22;7950;42.744;23.174;2023-08-08T09:00:09;21.00;93.90
15700;DHT22;7950;42.744;23.174;2023-08-08T09:02:38;20.90;91.00
15700;DHT22;7950;42.744;23.174;2023-08-08T09:05:07;20.70;93.20
15700;DHT22;7950;42.744;23.174;2023-08-08T09:07:37;20.70;95.50
15700;DHT22;7950;42.744;23.174;2023-08-08T09:10:07;20.80;93.80
15700;DHT22;7950;42.744;23.174;2023-08-08T09:12:36;20.70;94.10
15700;DHT22;7950;42.744;23.174;2023-08-08T09:15:06;20.70;94.40
15700;DHT22;7950;42.744;23.174;2023-08-08T09:17:36;20.80;95.50
15700;DHT22;7950;42.744;23.174;2023-08-08T09:20:17;20.90;93.70
15700;DHT22;7950;42.744;23.174;2023-08-08T09:22:46;20.90;91.80
15700;DHT22;7950;42.744;23.174;2023-08-08T09:25:16;20.80;90.20
15700;DHT22;7950;42.744;23.174;2023-08-08T09:27:45;20.70;90.20
15700;DHT22;7950;42.744;23.174;2023-08-08T09:30:15;20.70;92.10
15700;DHT22;7950;42.744;23.174;2023-08-08T09:32:44;20.70;91.20
15700;DHT22;7950;42.744;23.174;2023-08-08T09:35:13;20.70;91.90
15700;DHT22;7950;42.744;23.174;2023-08-08T09:37:43;20.80;90.50
15700;DHT22;7950;42.744;23.174;2023-08-08T09:40:11;20.80;89.00
15700;DHT22;7950;42.744;23.174;2023-08-08T09:42:42;20.80;91.00
15700;DHT22;7950;42.744;23.174;2023-08-08T09:45:10;20.90;90.50
15700;DHT22;7950;42.744;23.174;2023-08-08T09:47:39;21.00;90.10
15700;DHT22;7950;42.744;23.174;2023-08-08T09:50:08;21.10;90.20
15700;DHT22;7950;42.744;23.174;2023-08-08T09:52:37;21.20;90.00
15700;DHT22;7950;42.744;23.174;2023-08-08T09:55:07;21.30;89.70
15700;DHT22;7950;42.744;23.174;2023-08-08T09:57:38;21.40;89.00
15700;DHT22;7950;42.744;23.174;2023-08-08T10:00:10;21.50;85.30
15700;DHT22;7950;42.744;23.174;2023-08-08T10:02:44;21.60;83.40
15700;DHT22;7950;42.744;23.174;2023-08-08T10:05:14;21.60;86.80
15700;DHT22;7950;42.744;23.174;2023-08-08T10:07:44;21.70;83.20
15700;DHT22;7950;42.744;23.174;2023-08-08T10:10:13;21.70;84.40
15700;DHT22;7950;42.744;23.174;2023-08-08T10:12:47;21.70;82.40
15700;DHT22;7950;42.744;23.174;2023-08-08T10:15:17;21.90;86.60
15700;DHT22;7950;42.744;23.174;2023-08-08T10:17:46;22.10;83.40
15700;DHT22;7950;42.744;23.174;2023-08-08T10:20:21;22.30;83.00
15700;DHT22;7950;42.744;23.174;2023-08-08T10:22:53;22.50;82.70
15700;DHT22;7950;42.744;23.174;2023-08-08T10:25:27;22.50;78.50
15700;DHT22;7950;42.744;23.174;2023-08-08T10:28:05;22.60;78.50
15700;DHT22;7950;42.744;23.174;2023-08-08T10:30:55;22.70;75.80
15700;DHT22;7950;42.744;23.174;2023-08-08T10:33:27;22.50;74.60
15700;DHT22;7950;42.744;23.174;2023-08-08T10:36:01;22.50;78.00
15700;DHT22;7950;42.744;23.174;2023-08-08T10:38:41;22.70;77.40
15700;DHT22;7950;42.744;23.174;2023-08-08T10:41:11;22.60;73.70
15700;DHT22;7950;42.744;23.174;2023-08-08T10:43:50;22.60;75.70
15700;DHT22;7950;42.744;23.174;2023-08-08T10:46:25;22.80;76.70
15700;DHT22;7950;42.744;23.174;2023-08-08T10:48:57;23.00;76.40
15700;DHT22;7950;42.744;23.174;2023-08-08T10:51:34;23.10;73.50
15700;DHT22;7950;42.744;23.174;2023-08-08T10:54:05;23.20;72.50
15700;DHT22;7950;42.744;23.174;2023-08-08T10:56:35;23.00;72.40
15700;DHT22;7950;42.744;23.174;2023-08-08T10:59:14;23.10;72.80
15700;DHT22;7950;42.744;23.174;2023-08-08T11:01:49;23.00;71.80
15700;DHT22;7950;42.744;23.174;2023-08-08T11:04:20;23.00;73.50
15700;DHT22;7950;42.744;23.174;2023-08-08T11:06:53;23.00;74.80
15700;DHT22;7950;42.744;23.174;2023-08-08T11:09:22;23.00;73.90
15700;DHT22;7950;42.744;23.174;2023-08-08T11:11:53;23.00;74.30
15700;DHT22;7950;42.744;23.174;2023-08-08T11:14:22;23.00;72.80
15700;DHT22;7950;42.744;23.174;2023-08-08T11:16:52;23.00;73.00
15700;DHT22;7950;42.744;23.174;2023-08-08T11:19:21;23.10;72.80
15700;DHT22;7950;42.744;23.174;2023-08-08T11:21:51;23.30;71.70
15700;DHT22;7950;42.744;23.174;2023-08-08T11:24:20;23.40;71.20
15700;DHT22;7950;42.744;23.174;2023-08-08T11:26:48;23.40;71.00
15700;DHT22;7950;42.744;23.174;2023-08-08T11:29:18;23.40;68.20
15700;DHT22;7950;42.744;23.174;2023-08-08T11:31:48;23.50;70.70
15700;DHT22;7950;42.744;23.174;2023-08-08T11:34:18;23.70;69.10
15700;DHT22;7950;42.744;23.174;2023-08-08T11:36:47;23.80;68.90
15700;DHT22;7950;42.744;23.174;2023-08-08T11:39:17;23.90;68.70
15700;DHT22;7950;42.744;23.174;2023-08-08T11:41:47;24.00;69.60
15700;DHT22;7950;42.744;23.174;2023-08-08T11:44:16;24.00;67.30
15700;DHT22;7950;42.744;23.174;2023-08-08T11:46:45;24.10;67.50
15700;DHT22;7950;42.744;23.174;2023-08-08T11:49:14;24.10;67.10
15700;DHT22;7950;42.744;23.174;2023-08-08T11:51:46;24.20;65.50
15700;DHT22;7950;42.744;23.174;2023-08-08T11:54:14;24.20;67.80
15700;DHT22;7950;42.744;23.174;2023-08-08T11:56:43;24.20;65.20
15700;DHT22;7950;42.744;23.174;2023-08-08T11:59:12;24.10;66.80
15700;DHT22;7950;42.744;23.174;2023-08-08T12:01:41;24.10;67.50
15700;DHT22;7950;42.744;23.174;2023-08-08T12:04:11;24.10;65.50
15700;DHT22;7950;42.744;23.174;2023-08-08T12:06:40;24.10;66.80
15700;DHT22;7950;42.744;23.174;2023-08-08T12:09:12;24.20;65.80
15700;DHT22;7950;42.744;23.174;2023-08-08T12:11:41;24.20;66.40
15700;DHT22;7950;42.744;23.174;2023-08-08T12:14:12;24.20;66.90
15700;DHT22;7950;42.744;23.174;2023-08-08T12:16:42;24.20;65.90
15700;DHT22;7950;42.744;23.174;2023-08-08T12:19:11;24.10;65.50
15700;DHT22;7950;42.744;23.174;2023-08-08T12:21:44;24.10;65.60
15700;DHT22;7950;42.744;23.174;2023-08-08T12:24:14;24.10;65.90
15700;DHT22;7950;42.744;23.174;2023-08-08T12:26:43;24.20;63.80
15700;DHT22;7950;42.744;23.174;2023-08-08T12:29:11;24.00;64.60
15700;DHT22;7950;42.744;23.174;2023-08-08T12:31:40;24.00;65.30
15700;DHT22;7950;42.744;23.174;2023-08-08T12:34:09;24.10;66.10
15700;DHT22;7950;42.744;23.174;2023-08-08T12:36:37;24.30;65.80
15700;DHT22;7950;42.744;23.174;2023-08-08T12:39:06;24.50;66.40
15700;DHT22;7950;42.744;23.174;2023-08-08T12:41:36;24.60;64.20
15700;DHT22;7950;42.744;23.174;2023-08-08T12:44:05;24.60;63.90
15700;DHT22;7950;42.744;23.174;2023-08-08T12:46:35;24.40;62.80
15700;DHT22;7950;42.744;23.174;2023-08-08T12:49:04;24.30;63.90
15700;DHT22;7950;42.744;23.174;2023-08-08T12:51:32;24.30;65.00
15700;DHT22;7950;42.744;23.174;2023-08-08T12:54:01;24.30;63.30
15700;DHT22;7950;42.744;23.174;2023-08-08T12:56:29;24.30;66.40
15700;DHT22;7950;42.744;23.174;2023-08-08T12:58:59;24.50;64.50
15700;DHT22;7950;42.744;23.174;2023-08-08T13:01:30;24.60;62.70
15700;DHT22;7950;42.744;23.174;2023-08-08T13:03:59;24.60;63.80
15700;DHT22;7950;42.744;23.174;2023-08-08T13:06:45;24.60;63.10
15700;DHT22;7950;42.744;23.174;2023-08-08T13:09:14;24.50;63.60
15700;DHT22;7950;42.744;23.174;2023-08-08T13:11:42;24.60;62.70
15700;DHT22;7950;42.744;23.174;2023-08-08T13:14:12;24.50;61.50
15700;DHT22;7950;42.744;23.174;2023-08-08T13:16:41;24.40;63.00
15700;DHT22;7950;42.744;23.174;2023-08-08T13:19:09;24.40;63.10
15700;DHT22;7950;42.744;23.174;2023-08-08T13:21:38;24.30;62.50
15700;DHT22;7950;42.744;23.174;2023-08-08T13:24:07;24.20;63.10
15700;DHT22;7950;42.744;23.174;2023-08-08T13:26:36;24.20;63.50
15700;DHT22;7950;42.744;23.174;2023-08-08T13:29:05;24.10;64.10
15700;DHT22;7950;42.744;23.174;2023-08-08T13:31:36;24.30;63.50
15700;DHT22;7950;42.744;23.174;2023-08-08T13:34:05;24.40;63.70
15700;DHT22;7950;42.744;23.174;2023-08-08T13:36:33;24.60;63.20
15700;DHT22;7950;42.744;23.174;2023-08-08T13:39:02;24.60;61.90
15700;DHT22;7950;42.744;23.174;2023-08-08T13:41:31;24.70;62.80
15700;DHT22;7950;42.744;23.174;2023-08-08T13:44:00;24.70;61.10
15700;DHT22;7950;42.744;23.174;2023-08-08T13:46:28;24.70;61.50
15700;DHT22;7950;42.744;23.174;2023-08-08T13:48:58;24.60;61.40
15700;DHT22;7950;42.744;23.174;2023-08-08T13:51:27;24.60;61.80
15700;DHT22;7950;42.744;23.174;2023-08-08T13:53:55;24.60;61.90
15700;DHT22;7950;42.744;23.174;2023-08-08T13:56:24;24.70;63.20
15700;DHT22;7950;42.744;23.174;2023-08-08T13:58:52;24.70;62.20
15700;DHT22;7950;42.744;23.174;2023-08-08T14:01:21;24.70;61.10
15700;DHT22;7950;42.744;23.174;2023-08-08T14:03:49;24.70;60.20
15700;DHT22;7950;42.744;23.174;2023-08-08T14:06:19;24.60;61.40
15700;DHT22;7950;42.744;23.174;2023-08-08T14:08:48;24.50;61.30
15700;DHT22;7950;42.744;23.174;2023-08-08T14:11:16;24.50;61.50
15700;DHT22;7950;42.744;23.174;2023-08-08T14:13:45;24.40;62.40
15700;DHT22;7950;42.744;23.174;2023-08-08T14:16:13;24.40;62.60
15700;DHT22;7950;42.744;23.174;2023-08-08T14:18:42;24.40;61.90
15700;DHT22;7950;42.744;23.174;2023-08-08T14:21:10;24.50;61.90
15700;DHT22;7950;42.744;23.174;2023-08-08T14:23:40;24.50;61.80
15700;DHT22;7950;42.744;23.174;2023-08-08T14:26:09;24.50;61.60
15700;DHT22;7950;42.744;23.174;2023-08-08T14:28:37;24.60;61.80
15700;DHT22;7950;42.744;23.174;2023-08-08T14:31:05;24.60;62.10
15700;DHT22;7950;42.744;23.174;2023-08-08T14:33:34;24.60;60.10
15700;DHT22;7950;42.744;23.174;2023-08-08T14:36:03;24.60;61.00
15700;DHT22;7950;42.744;23.174;2023-08-08T14:38:35;24.50;60.70
15700;DHT22;7950;42.744;23.174;2023-08-08T14:41:05;24.40;60.20
15700;DHT22;7950;42.744;23.174;2023-08-08T14:43:34;24.30;60.50
15700;DHT22;7950;42.744;23.174;2023-08-08T14:46:02;24.30;61.20
15700;DHT22;7950;42.744;23.174;2023-08-08T14:48:31;24.30;60.40
15700;DHT22;7950;42.744;23.174;2023-08-08T14:51:00;24.20;61.10
15700;DHT22;7950;42.744;23.174;2023-08-08T14:53:30;24.20;61.30
15700;DHT22;7950;42.744;23.174;2023-08-08T14:55:58;24.10;60.40
15700;DHT22;7950;42.744;23.174;2023-08-08T14:58:28;24.00;60.80
15700;DHT22;7950;42.744;23.174;2023-08-08T15:00:57;23.90;62.10
15700;DHT22;7950;42.744;23.174;2023-08-08T15:03:25;23.90;62.40
15700;DHT22;7950;42.744;23.174;2023-08-08T15:05:54;24.00;62.30
15700;DHT22;7950;42.744;23.174;2023-08-08T15:08:23;24.10;61.80
15700;DHT22;7950;42.744;23.174;2023-08-08T15:10:52;24.00;62.40
15700;DHT22;7950;42.744;23.174;2023-08-08T15:13:21;24.00;62.90
15700;DHT22;7950;42.744;23.174;2023-08-08T15:15:51;23.90;61.20
15700;DHT22;7950;42.744;23.174;2023-08-08T15:18:20;23.80;62.00
15700;DHT22;7950;42.744;23.174;2023-08-08T15:20:49;23.70;62.60
15700;DHT22;7950;42.744;23.174;2023-08-08T15:23:18;23.60;62.20
15700;DHT22;7950;42.744;23.174;2023-08-08T15:25:46;23.50;62.80
15700;DHT22;7950;42.744;23.174;2023-08-08T15:28:15;23.40;63.00
15700;DHT22;7950;42.744;23.174;2023-08-08T15:30:44;23.40;64.30
15700;DHT22;7950;42.744;23.174;2023-08-08T15:33:13;23.40;64.50
15700;DHT22;7950;42.744;23.174;2023-08-08T15:35:42;23.40;63.60
15700;DHT22;7950;42.744;23.174;2023-08-08T15:38:11;23.40;63.60
15700;DHT22;7950;42.744;23.174;2023-08-08T15:40:39;23.40;63.40
15700;DHT22;7950;42.744;23.174;2023-08-08T15:43:08;23.30;63.50
15700;DHT22;7950;42.744;23.174;2023-08-08T15:45:36;23.20;64.40